Kent, OH

6:47 PM EDT on March 27, 2015 (GMT -0400)
Ravenna TWP | | Change Station
CLOSE
Current Station
Personal Weather Station
Location: Ravenna, OH
Elevation: 1086 ft
Nearby Weather Stations

Elev 1086 ft 41.17 °N, 81.21 °W | Updated 38 seconds ago

Snow
Snow
23.4 °F
Feels Like 11 °F
N
15.0
Wind Variable Wind from WNW

Today
High -- | Low -- °F
--% Chance of Precip.
Yesterday
High -- | Low -- °F
Precip. -- in
7:17 AM 7:44 PM
First Quarter, 56% visible
Pressure 29.96 in
Visibility 4.0 miles
Clouds
Windchill 11 °F
Dew Point 23 °F
Humidity 98%
Rainfall 0.00 in
Snow Depth Not available.
UV Not available.
Pollen 2.80 out of 12
Air Quality Not available.
Flu Activity Not available.
METAR KPOV 272235Z AUTO 35008G14KT 4SM -SN M04/M08 A2996 RMK AO2 T10451082

More Conditions Fewer Conditions

Pressure 29.96 in
Visibility 4.0 miles
Clouds
Windchill 11 °F
Dew Point 23 °F
Humidity 98%
Rainfall 0.00 in
Snow Depth Not available.
UV Not available.
Pollen 2.80 out of 12
Air Quality Not available.
Flu Activity Not available.
METAR KPOV 272235Z AUTO 35008G14KT 4SM -SN M04/M08 A2996 RMK AO2 T10451082

More Conditions Fewer Conditions

10-Day Weather Forecast

Almanac

Astronomy

Mar. 27, 2015 Rise Set
Actual Time
Civil Twilight
Nautical Twilight
Astronomical Twilight
Moon
Length of Visible Light
Length of Day
Tomorrow will be .
, % of the Moon is Illuminated

Today's Extremes

State Highs State Lows

Community

WunderPhotos

Upload Photos

1,808,856 photos uploaded!

WunderBlogs® & News

Nearby

Air Quality

  Air Quality AQ Index Pollutant
Not available.

Snow Depth

Station Depth Elevation

Earthquake Activity

City Distance Mag. Time & Date
Minimum magnitude displayed is 2.5.

Coastal Water Temperatures

Place Temperature

Stations

Nearby Weather Stations

Station Location Temp. Windchill Dew Point Humidity Wind Precip. Elev Updated Type